sensor_id;sensor_type;location;lat;lon;timestamp;P1;durP1;ratioP1;P2;durP2;ratioP2
31730;SDS011;18310;55.586;12.286;2022-11-18T00:00:31;2.72;;;0.60;;
31730;SDS011;18310;55.586;12.286;2022-11-18T00:03:34;5.10;;;0.63;;
31730;SDS011;18310;55.586;12.286;2022-11-18T00:06:39;1.92;;;0.50;;
31730;SDS011;18310;55.586;12.286;2022-11-18T00:09:42;1.42;;;0.47;;
31730;SDS011;18310;55.586;12.286;2022-11-18T00:12:46;2.67;;;0.40;;
31730;SDS011;18310;55.586;12.286;2022-11-18T00:16:07;2.22;;;0.80;;
31730;SDS011;18310;55.586;12.286;2022-11-18T00:19:13;2.42;;;0.47;;
31730;SDS011;18310;55.586;12.286;2022-11-18T00:22:19;2.70;;;0.50;;
31730;SDS011;18310;55.586;12.286;2022-11-18T00:25:29;1.88;;;0.60;;
31730;SDS011;18310;55.586;12.286;2022-11-18T00:28:35;2.67;;;0.52;;
31730;SDS011;18310;55.586;12.286;2022-11-18T00:31:39;0.52;;;0.30;;
31730;SDS011;18310;55.586;12.286;2022-11-18T00:34:42;5.53;;;0.70;;
31730;SDS011;18310;55.586;12.286;2022-11-18T00:37:47;1.48;;;0.60;;
31730;SDS011;18310;55.586;12.286;2022-11-18T00:40:57;2.67;;;0.60;;
31730;SDS011;18310;55.586;12.286;2022-11-18T00:44:02;1.70;;;0.70;;
31730;SDS011;18310;55.586;12.286;2022-11-18T00:47:09;1.60;;;0.52;;
31730;SDS011;18310;55.586;12.286;2022-11-18T00:50:14;3.60;;;0.67;;
31730;SDS011;18310;55.586;12.286;2022-11-18T00:53:23;3.97;;;0.70;;
31730;SDS011;18310;55.586;12.286;2022-11-18T00:56:28;6.40;;;0.70;;
31730;SDS011;18310;55.586;12.286;2022-11-18T00:59:32;2.70;;;0.70;;
31730;SDS011;18310;55.586;12.286;2022-11-18T01:02:35;3.53;;;0.77;;
31730;SDS011;18310;55.586;12.286;2022-11-18T01:05:39;2.17;;;0.63;;
31730;SDS011;18310;55.586;12.286;2022-11-18T01:08:44;2.50;;;0.52;;
31730;SDS011;18310;55.586;12.286;2022-11-18T01:11:48;3.90;;;0.35;;
31730;SDS011;18310;55.586;12.286;2022-11-18T01:15:09;3.22;;;0.65;;
31730;SDS011;18310;55.586;12.286;2022-11-18T01:18:12;1.60;;;0.50;;
31730;SDS011;18310;55.586;12.286;2022-11-18T01:21:17;2.70;;;0.60;;
31730;SDS011;18310;55.586;12.286;2022-11-18T01:24:23;3.40;;;0.73;;
31730;SDS011;18310;55.586;12.286;2022-11-18T01:27:26;1.60;;;0.50;;
31730;SDS011;18310;55.586;12.286;2022-11-18T01:30:31;1.97;;;0.57;;
31730;SDS011;18310;55.586;12.286;2022-11-18T01:33:40;1.83;;;0.52;;
31730;SDS011;18310;55.586;12.286;2022-11-18T01:36:45;2.10;;;0.55;;
31730;SDS011;18310;55.586;12.286;2022-11-18T01:39:50;1.60;;;0.43;;
31730;SDS011;18310;55.586;12.286;2022-11-18T01:42:53;1.20;;;0.40;;
31730;SDS011;18310;55.586;12.286;2022-11-18T01:45:57;4.05;;;0.50;;
31730;SDS011;18310;55.586;12.286;2022-11-18T01:49:02;1.50;;;0.40;;
31730;SDS011;18310;55.586;12.286;2022-11-18T01:52:10;3.03;;;0.70;;
31730;SDS011;18310;55.586;12.286;2022-11-18T01:55:18;3.90;;;0.55;;
31730;SDS011;18310;55.586;12.286;2022-11-18T01:58:29;2.80;;;0.50;;
31730;SDS011;18310;55.586;12.286;2022-11-18T02:01:38;2.70;;;0.55;;
31730;SDS011;18310;55.586;12.286;2022-11-18T02:04:43;6.22;;;0.40;;
31730;SDS011;18310;55.586;12.286;2022-11-18T02:07:53;1.05;;;0.35;;
31730;SDS011;18310;55.586;12.286;2022-11-18T02:10:59;1.17;;;0.28;;
31730;SDS011;18310;55.586;12.286;2022-11-18T02:14:04;3.30;;;0.35;;
31730;SDS011;18310;55.586;12.286;2022-11-18T02:17:13;0.80;;;0.32;;
31730;SDS011;18310;55.586;12.286;2022-11-18T02:20:32;4.07;;;0.40;;
31730;SDS011;18310;55.586;12.286;2022-11-18T02:31:10;1.77;;;0.43;;
31730;SDS011;18310;55.586;12.286;2022-11-18T02:34:31;1.85;;;0.50;;
31730;SDS011;18310;55.586;12.286;2022-11-18T02:37:47;1.00;;;0.38;;
31730;SDS011;18310;55.586;12.286;2022-11-18T02:40:57;1.25;;;0.50;;
31730;SDS011;18310;55.586;12.286;2022-11-18T02:44:08;1.83;;;0.60;;
31730;SDS011;18310;55.586;12.286;2022-11-18T02:47:18;1.65;;;0.45;;
31730;SDS011;18310;55.586;12.286;2022-11-18T02:50:26;1.13;;;0.40;;
31730;SDS011;18310;55.586;12.286;2022-11-18T02:53:35;2.13;;;0.63;;
31730;SDS011;18310;55.586;12.286;2022-11-18T02:56:43;0.82;;;0.30;;
31730;SDS011;18310;55.586;12.286;2022-11-18T02:59:48;3.33;;;0.60;;
31730;SDS011;18310;55.586;12.286;2022-11-18T03:02:53;2.22;;;0.35;;
31730;SDS011;18310;55.586;12.286;2022-11-18T03:06:07;2.40;;;0.40;;
31730;SDS011;18310;55.586;12.286;2022-11-18T03:09:28;1.02;;;0.43;;
31730;SDS011;18310;55.586;12.286;2022-11-18T03:12:38;2.17;;;0.60;;
31730;SDS011;18310;55.586;12.286;2022-11-18T03:15:50;1.83;;;0.60;;
31730;SDS011;18310;55.586;12.286;2022-11-18T03:19:06;1.65;;;0.40;;
31730;SDS011;18310;55.586;12.286;2022-11-18T03:22:20;1.17;;;0.40;;
31730;SDS011;18310;55.586;12.286;2022-11-18T03:25:32;1.50;;;0.30;;
31730;SDS011;18310;55.586;12.286;2022-11-18T03:28:45;1.35;;;0.38;;
31730;SDS011;18310;55.586;12.286;2022-11-18T03:31:58;1.77;;;0.40;;
31730;SDS011;18310;55.586;12.286;2022-11-18T03:35:10;2.22;;;0.55;;
31730;SDS011;18310;55.586;12.286;2022-11-18T03:38:22;2.40;;;0.40;;
31730;SDS011;18310;55.586;12.286;2022-11-18T03:44:44;1.02;;;0.40;;
31730;SDS011;18310;55.586;12.286;2022-11-18T03:47:57;1.95;;;0.47;;
31730;SDS011;18310;55.586;12.286;2022-11-18T03:51:08;1.45;;;0.45;;
31730;SDS011;18310;55.586;12.286;2022-11-18T03:54:18;0.93;;;0.47;;
31730;SDS011;18310;55.586;12.286;2022-11-18T03:57:27;2.40;;;0.50;;
31730;SDS011;18310;55.586;12.286;2022-11-18T04:00:39;0.93;;;0.30;;
31730;SDS011;18310;55.586;12.286;2022-11-18T04:03:48;2.97;;;0.45;;
31730;SDS011;18310;55.586;12.286;2022-11-18T04:06:53;1.17;;;0.32;;
31730;SDS011;18310;55.586;12.286;2022-11-18T04:10:07;1.58;;;0.50;;
31730;SDS011;18310;55.586;12.286;2022-11-18T04:13:17;1.35;;;0.40;;
31730;SDS011;18310;55.586;12.286;2022-11-18T04:16:25;0.68;;;0.25;;
31730;SDS011;18310;55.586;12.286;2022-11-18T04:19:29;1.35;;;0.43;;
31730;SDS011;18310;55.586;12.286;2022-11-18T04:22:34;1.05;;;0.30;;
31730;SDS011;18310;55.586;12.286;2022-11-18T04:25:38;4.65;;;0.47;;
31730;SDS011;18310;55.586;12.286;2022-11-18T04:28:41;1.90;;;0.60;;
31730;SDS011;18310;55.586;12.286;2022-11-18T04:31:45;1.75;;;0.50;;
31730;SDS011;18310;55.586;12.286;2022-11-18T04:34:49;1.88;;;0.50;;
31730;SDS011;18310;55.586;12.286;2022-11-18T04:37:54;0.93;;;0.30;;
31730;SDS011;18310;55.586;12.286;2022-11-18T04:40:58;2.40;;;0.57;;
31730;SDS011;18310;55.586;12.286;2022-11-18T04:44:02;1.92;;;0.30;;
31730;SDS011;18310;55.586;12.286;2022-11-18T04:47:13;2.97;;;0.65;;
31730;SDS011;18310;55.586;12.286;2022-11-18T04:50:18;1.45;;;0.50;;
31730;SDS011;18310;55.586;12.286;2022-11-18T04:53:32;1.45;;;0.52;;
31730;SDS011;18310;55.586;12.286;2022-11-18T04:56:36;1.23;;;0.35;;
31730;SDS011;18310;55.586;12.286;2022-11-18T04:59:49;2.33;;;0.30;;
31730;SDS011;18310;55.586;12.286;2022-11-18T05:02:52;1.23;;;0.20;;
31730;SDS011;18310;55.586;12.286;2022-11-18T05:05:59;3.78;;;0.40;;
31730;SDS011;18310;55.586;12.286;2022-11-18T05:09:05;2.17;;;0.50;;
31730;SDS011;18310;55.586;12.286;2022-11-18T05:12:10;2.70;;;0.30;;
31730;SDS011;18310;55.586;12.286;2022-11-18T05:15:33;1.02;;;0.30;;
31730;SDS011;18310;55.586;12.286;2022-11-18T05:18:37;3.33;;;0.40;;
31730;SDS011;18310;55.586;12.286;2022-11-18T05:21:40;1.38;;;0.20;;
31730;SDS011;18310;55.586;12.286;2022-11-18T05:24:46;4.03;;;0.43;;
31730;SDS011;18310;55.586;12.286;2022-11-18T05:27:53;1.08;;;0.20;;
31730;SDS011;18310;55.586;12.286;2022-11-18T05:30:57;1.40;;;0.40;;
31730;SDS011;18310;55.586;12.286;2022-11-18T05:37:05;2.63;;;0.50;;
31730;SDS011;18310;55.586;12.286;2022-11-18T05:40:11;2.65;;;0.55;;
31730;SDS011;18310;55.586;12.286;2022-11-18T05:43:15;3.13;;;0.50;;
31730;SDS011;18310;55.586;12.286;2022-11-18T05:46:17;3.50;;;0.50;;
31730;SDS011;18310;55.586;12.286;2022-11-18T05:49:21;2.00;;;0.52;;
31730;SDS011;18310;55.586;12.286;2022-11-18T05:52:25;1.23;;;0.32;;
31730;SDS011;18310;55.586;12.286;2022-11-18T05:55:32;3.08;;;0.55;;
31730;SDS011;18310;55.586;12.286;2022-11-18T05:58:42;1.55;;;0.30;;
31730;SDS011;18310;55.586;12.286;2022-11-18T06:01:46;0.93;;;0.27;;
31730;SDS011;18310;55.586;12.286;2022-11-18T06:04:56;2.83;;;0.57;;
31730;SDS011;18310;55.586;12.286;2022-11-18T06:08:04;1.52;;;0.43;;
31730;SDS011;18310;55.586;12.286;2022-11-18T06:11:14;1.95;;;0.57;;
31730;SDS011;18310;55.586;12.286;2022-11-18T06:14:21;0.93;;;0.40;;
31730;SDS011;18310;55.586;12.286;2022-11-18T06:17:34;2.65;;;0.45;;
31730;SDS011;18310;55.586;12.286;2022-11-18T06:20:44;1.58;;;0.40;;
31730;SDS011;18310;55.586;12.286;2022-11-18T06:23:48;3.70;;;0.45;;
31730;SDS011;18310;55.586;12.286;2022-11-18T06:26:53;2.80;;;0.70;;
31730;SDS011;18310;55.586;12.286;2022-11-18T06:29:57;1.05;;;0.40;;
31730;SDS011;18310;55.586;12.286;2022-11-18T06:33:03;2.80;;;0.50;;
31730;SDS011;18310;55.586;12.286;2022-11-18T06:42:22;2.35;;;0.65;;
31730;SDS011;18310;55.586;12.286;2022-11-18T06:45:46;1.80;;;0.50;;
31730;SDS011;18310;55.586;12.286;2022-11-18T06:49:09;3.63;;;0.50;;
31730;SDS011;18310;55.586;12.286;2022-11-18T06:52:13;3.05;;;0.55;;
31730;SDS011;18310;55.586;12.286;2022-11-18T06:55:17;3.03;;;0.50;;
31730;SDS011;18310;55.586;12.286;2022-11-18T06:58:27;2.60;;;0.52;;
31730;SDS011;18310;55.586;12.286;2022-11-18T07:01:33;8.65;;;0.80;;
31730;SDS011;18310;55.586;12.286;2022-11-18T07:04:43;3.35;;;0.80;;
31730;SDS011;18310;55.586;12.286;2022-11-18T07:07:52;1.88;;;0.68;;
31730;SDS011;18310;55.586;12.286;2022-11-18T07:11:01;1.52;;;0.50;;
31730;SDS011;18310;55.586;12.286;2022-11-18T07:14:17;3.13;;;0.85;;
31730;SDS011;18310;55.586;12.286;2022-11-18T07:17:30;4.35;;;0.90;;
31730;SDS011;18310;55.586;12.286;2022-11-18T07:20:50;3.05;;;0.82;;
31730;SDS011;18310;55.586;12.286;2022-11-18T07:24:04;2.75;;;0.63;;
31730;SDS011;18310;55.586;12.286;2022-11-18T07:27:11;14.20;;;1.10;;
31730;SDS011;18310;55.586;12.286;2022-11-18T07:30:26;2.40;;;0.77;;
31730;SDS011;18310;55.586;12.286;2022-11-18T07:33:32;3.38;;;0.73;;
31730;SDS011;18310;55.586;12.286;2022-11-18T07:36:41;2.25;;;0.80;;
31730;SDS011;18310;55.586;12.286;2022-11-18T07:39:46;3.67;;;0.90;;
31730;SDS011;18310;55.586;12.286;2022-11-18T07:42:52;2.58;;;0.80;;
31730;SDS011;18310;55.586;12.286;2022-11-18T07:46:08;3.97;;;0.80;;
31730;SDS011;18310;55.586;12.286;2022-11-18T07:49:16;3.83;;;0.60;;
31730;SDS011;18310;55.586;12.286;2022-11-18T07:52:24;2.92;;;0.63;;
31730;SDS011;18310;55.586;12.286;2022-11-18T07:55:28;3.10;;;0.82;;
31730;SDS011;18310;55.586;12.286;2022-11-18T07:58:42;1.30;;;0.75;;
31730;SDS011;18310;55.586;12.286;2022-11-18T08:01:54;4.35;;;1.30;;
31730;SDS011;18310;55.586;12.286;2022-11-18T08:05:03;5.40;;;0.98;;
31730;SDS011;18310;55.586;12.286;2022-11-18T08:08:14;4.15;;;0.70;;
31730;SDS011;18310;55.586;12.286;2022-11-18T08:11:21;3.75;;;0.65;;
31730;SDS011;18310;55.586;12.286;2022-11-18T08:14:29;2.88;;;0.95;;
31730;SDS011;18310;55.586;12.286;2022-11-18T08:17:39;2.70;;;0.60;;
31730;SDS011;18310;55.586;12.286;2022-11-18T08:20:45;3.50;;;0.98;;
31730;SDS011;18310;55.586;12.286;2022-11-18T08:23:58;2.50;;;0.90;;
31730;SDS011;18310;55.586;12.286;2022-11-18T08:27:05;2.72;;;0.65;;
31730;SDS011;18310;55.586;12.286;2022-11-18T08:30:11;1.92;;;0.68;;
31730;SDS011;18310;55.586;12.286;2022-11-18T08:33:18;1.90;;;0.70;;
31730;SDS011;18310;55.586;12.286;2022-11-18T08:36:24;3.45;;;0.90;;
31730;SDS011;18310;55.586;12.286;2022-11-18T08:39:32;4.20;;;0.80;;
31730;SDS011;18310;55.586;12.286;2022-11-18T08:42:38;1.85;;;0.80;;
31730;SDS011;18310;55.586;12.286;2022-11-18T08:45:46;4.45;;;1.00;;
31730;SDS011;18310;55.586;12.286;2022-11-18T08:48:53;2.30;;;0.90;;
31730;SDS011;18310;55.586;12.286;2022-11-18T08:52:01;1.90;;;0.68;;
31730;SDS011;18310;55.586;12.286;2022-11-18T08:55:06;2.05;;;0.60;;
31730;SDS011;18310;55.586;12.286;2022-11-18T08:58:15;3.05;;;0.60;;
31730;SDS011;18310;55.586;12.286;2022-11-18T09:01:20;2.05;;;0.73;;
31730;SDS011;18310;55.586;12.286;2022-11-18T09:04:27;3.15;;;0.90;;
31730;SDS011;18310;55.586;12.286;2022-11-18T09:07:33;4.80;;;0.70;;
31730;SDS011;18310;55.586;12.286;2022-11-18T09:10:39;1.80;;;0.60;;
31730;SDS011;18310;55.586;12.286;2022-11-18T09:13:44;4.10;;;0.80;;
31730;SDS011;18310;55.586;12.286;2022-11-18T09:17:14;2.42;;;0.63;;
31730;SDS011;18310;55.586;12.286;2022-11-18T09:20:22;5.07;;;0.75;;
31730;SDS011;18310;55.586;12.286;2022-11-18T09:23:28;3.60;;;0.80;;
31730;SDS011;18310;55.586;12.286;2022-11-18T09:26:34;2.08;;;0.50;;
31730;SDS011;18310;55.586;12.286;2022-11-18T09:29:42;3.25;;;0.70;;
31730;SDS011;18310;55.586;12.286;2022-11-18T09:32:47;2.00;;;0.60;;
31730;SDS011;18310;55.586;12.286;2022-11-18T09:35:54;3.45;;;0.80;;
31730;SDS011;18310;55.586;12.286;2022-11-18T09:39:02;1.88;;;0.52;;
31730;SDS011;18310;55.586;12.286;2022-11-18T09:42:21;2.47;;;0.60;;
31730;SDS011;18310;55.586;12.286;2022-11-18T09:45:54;2.65;;;0.80;;
31730;SDS011;18310;55.586;12.286;2022-11-18T09:52:19;1.35;;;0.52;;
31730;SDS011;18310;55.586;12.286;2022-11-18T09:55:37;2.42;;;0.40;;
31730;SDS011;18310;55.586;12.286;2022-11-18T09:58:44;3.17;;;0.50;;
31730;SDS011;18310;55.586;12.286;2022-11-18T10:01:51;1.42;;;0.45;;
31730;SDS011;18310;55.586;12.286;2022-11-18T10:05:24;1.52;;;0.40;;
31730;SDS011;18310;55.586;12.286;2022-11-18T10:08:38;4.70;;;0.68;;
31730;SDS011;18310;55.586;12.286;2022-11-18T10:12:02;4.20;;;0.50;;
31730;SDS011;18310;55.586;12.286;2022-11-18T10:15:31;2.78;;;0.60;;
31730;SDS011;18310;55.586;12.286;2022-11-18T10:18:48;2.05;;;0.60;;
31730;SDS011;18310;55.586;12.286;2022-11-18T10:22:18;2.65;;;0.60;;
31730;SDS011;18310;55.586;12.286;2022-11-18T10:25:52;3.65;;;0.60;;
31730;SDS011;18310;55.586;12.286;2022-11-18T10:28:58;2.45;;;0.60;;
31730;SDS011;18310;55.586;12.286;2022-11-18T10:32:03;2.42;;;0.55;;
31730;SDS011;18310;55.586;12.286;2022-11-18T10:35:22;2.65;;;0.50;;
31730;SDS011;18310;55.586;12.286;2022-11-18T10:38:30;2.05;;;0.52;;
31730;SDS011;18310;55.586;12.286;2022-11-18T10:41:40;3.75;;;0.40;;
31730;SDS011;18310;55.586;12.286;2022-11-18T10:44:48;1.80;;;0.60;;
31730;SDS011;18310;55.586;12.286;2022-11-18T10:48:00;2.40;;;0.38;;
31730;SDS011;18310;55.586;12.286;2022-11-18T10:51:19;3.78;;;0.50;;
31730;SDS011;18310;55.586;12.286;2022-11-18T10:54:26;2.83;;;0.45;;
31730;SDS011;18310;55.586;12.286;2022-11-18T10:57:30;1.20;;;0.40;;
31730;SDS011;18310;55.586;12.286;2022-11-18T11:00:40;1.92;;;0.40;;
31730;SDS011;18310;55.586;12.286;2022-11-18T11:03:51;2.65;;;0.40;;
31730;SDS011;18310;55.586;12.286;2022-11-18T11:07:12;2.53;;;0.43;;
31730;SDS011;18310;55.586;12.286;2022-11-18T11:13:32;2.15;;;0.40;;
31730;SDS011;18310;55.586;12.286;2022-11-18T11:16:47;1.65;;;0.40;;
31730;SDS011;18310;55.586;12.286;2022-11-18T11:20:03;0.98;;;0.22;;
31730;SDS011;18310;55.586;12.286;2022-11-18T11:23:16;2.75;;;0.45;;
31730;SDS011;18310;55.586;12.286;2022-11-18T11:26:27;1.42;;;0.40;;
31730;SDS011;18310;55.586;12.286;2022-11-18T11:33:25;4.57;;;0.90;;
31730;SDS011;18310;55.586;12.286;2022-11-18T11:36:41;1.13;;;0.25;;
31730;SDS011;18310;55.586;12.286;2022-11-18T11:39:56;1.83;;;0.52;;
31730;SDS011;18310;55.586;12.286;2022-11-18T11:43:21;6.13;;;0.43;;
31730;SDS011;18310;55.586;12.286;2022-11-18T11:46:41;2.83;;;0.75;;
31730;SDS011;18310;55.586;12.286;2022-11-18T11:50:12;1.77;;;0.52;;
31730;SDS011;18310;55.586;12.286;2022-11-18T11:53:31;2.08;;;0.43;;
31730;SDS011;18310;55.586;12.286;2022-11-18T11:56:52;3.55;;;0.50;;
31730;SDS011;18310;55.586;12.286;2022-11-18T12:00:01;1.92;;;0.50;;
31730;SDS011;18310;55.586;12.286;2022-11-18T12:03:19;4.47;;;0.50;;
31730;SDS011;18310;55.586;12.286;2022-11-18T12:06:52;0.80;;;0.20;;
31730;SDS011;18310;55.586;12.286;2022-11-18T12:10:04;1.00;;;0.25;;
31730;SDS011;18310;55.586;12.286;2022-11-18T12:13:33;1.00;;;0.30;;
31730;SDS011;18310;55.586;12.286;2022-11-18T12:16:45;1.00;;;0.30;;
31730;SDS011;18310;55.586;12.286;2022-11-18T12:19:59;2.33;;;0.60;;
31730;SDS011;18310;55.586;12.286;2022-11-18T12:23:42;4.70;;;0.40;;
31730;SDS011;18310;55.586;12.286;2022-11-18T12:34:43;1.23;;;0.50;;
31730;SDS011;18310;55.586;12.286;2022-11-18T12:53:06;1.90;;;0.40;;
31730;SDS011;18310;55.586;12.286;2022-11-18T12:56:35;1.85;;;0.40;;
31730;SDS011;18310;55.586;12.286;2022-11-18T12:59:40;2.05;;;0.35;;
31730;SDS011;18310;55.586;12.286;2022-11-18T13:02:49;1.17;;;0.32;;
31730;SDS011;18310;55.586;12.286;2022-11-18T13:05:57;1.13;;;0.20;;
31730;SDS011;18310;55.586;12.286;2022-11-18T13:09:13;1.20;;;0.25;;
31730;SDS011;18310;55.586;12.286;2022-11-18T13:12:19;0.93;;;0.20;;
31730;SDS011;18310;55.586;12.286;2022-11-18T13:15:26;0.85;;;0.30;;
31730;SDS011;18310;55.586;12.286;2022-11-18T13:18:48;3.90;;;0.45;;
31730;SDS011;18310;55.586;12.286;2022-11-18T13:21:55;1.15;;;0.40;;
31730;SDS011;18310;55.586;12.286;2022-11-18T13:25:24;0.88;;;0.30;;
31730;SDS011;18310;55.586;12.286;2022-11-18T13:28:28;2.10;;;0.30;;
31730;SDS011;18310;55.586;12.286;2022-11-18T13:31:41;3.17;;;0.65;;
31730;SDS011;18310;55.586;12.286;2022-11-18T13:35:04;1.70;;;0.32;;
31730;SDS011;18310;55.586;12.286;2022-11-18T13:38:17;1.17;;;0.32;;
31730;SDS011;18310;55.586;12.286;2022-11-18T13:41:31;1.33;;;0.40;;
31730;SDS011;18310;55.586;12.286;2022-11-18T13:44:37;1.15;;;0.30;;
31730;SDS011;18310;55.586;12.286;2022-11-18T13:47:42;2.03;;;0.40;;
31730;SDS011;18310;55.586;12.286;2022-11-18T13:50:50;2.88;;;0.60;;
31730;SDS011;18310;55.586;12.286;2022-11-18T13:53:57;3.65;;;0.60;;
31730;SDS011;18310;55.586;12.286;2022-11-18T13:57:03;1.65;;;0.40;;
31730;SDS011;18310;55.586;12.286;2022-11-18T14:00:14;1.23;;;0.50;;
31730;SDS011;18310;55.586;12.286;2022-11-18T14:03:25;0.75;;;0.30;;
31730;SDS011;18310;55.586;12.286;2022-11-18T14:06:35;1.48;;;0.45;;
31730;SDS011;18310;55.586;12.286;2022-11-18T14:09:50;2.35;;;0.47;;
31730;SDS011;18310;55.586;12.286;2022-11-18T14:12:58;3.35;;;0.50;;
31730;SDS011;18310;55.586;12.286;2022-11-18T14:16:23;1.55;;;0.30;;
31730;SDS011;18310;55.586;12.286;2022-11-18T14:19:37;0.90;;;0.30;;
31730;SDS011;18310;55.586;12.286;2022-11-18T14:22:42;1.90;;;0.73;;
31730;SDS011;18310;55.586;12.286;2022-11-18T14:25:49;1.90;;;0.50;;
31730;SDS011;18310;55.586;12.286;2022-11-18T14:35:15;2.63;;;0.70;;
31730;SDS011;18310;55.586;12.286;2022-11-18T14:38:19;3.53;;;0.50;;
31730;SDS011;18310;55.586;12.286;2022-11-18T14:41:47;2.25;;;0.50;;
31730;SDS011;18310;55.586;12.286;2022-11-18T14:44:50;2.45;;;0.80;;
31730;SDS011;18310;55.586;12.286;2022-11-18T14:47:55;2.53;;;0.60;;
31730;SDS011;18310;55.586;12.286;2022-11-18T14:50:59;1.38;;;0.50;;
31730;SDS011;18310;55.586;12.286;2022-11-18T14:54:04;1.73;;;0.50;;
31730;SDS011;18310;55.586;12.286;2022-11-18T14:57:09;2.47;;;0.68;;
31730;SDS011;18310;55.586;12.286;2022-11-18T15:00:17;1.73;;;0.60;;
31730;SDS011;18310;55.586;12.286;2022-11-18T15:03:22;0.85;;;0.30;;
31730;SDS011;18310;55.586;12.286;2022-11-18T15:06:26;1.45;;;0.47;;
31730;SDS011;18310;55.586;12.286;2022-11-18T15:09:30;1.95;;;0.65;;
31730;SDS011;18310;55.586;12.286;2022-11-18T15:12:33;2.53;;;0.82;;
31730;SDS011;18310;55.586;12.286;2022-11-18T15:15:37;2.80;;;0.70;;
31730;SDS011;18310;55.586;12.286;2022-11-18T15:18:42;1.38;;;0.60;;
31730;SDS011;18310;55.586;12.286;2022-11-18T15:21:48;3.78;;;0.82;;
31730;SDS011;18310;55.586;12.286;2022-11-18T15:24:52;1.90;;;0.60;;
31730;SDS011;18310;55.586;12.286;2022-11-18T15:27:55;2.80;;;0.80;;
31730;SDS011;18310;55.586;12.286;2022-11-18T15:31:01;2.55;;;1.05;;
31730;SDS011;18310;55.586;12.286;2022-11-18T15:34:06;3.70;;;1.42;;
31730;SDS011;18310;55.586;12.286;2022-11-18T15:37:10;4.75;;;1.85;;
31730;SDS011;18310;55.586;12.286;2022-11-18T15:40:14;4.63;;;1.20;;
31730;SDS011;18310;55.586;12.286;2022-11-18T15:43:18;6.68;;;1.48;;
31730;SDS011;18310;55.586;12.286;2022-11-18T15:46:22;2.73;;;1.00;;
31730;SDS011;18310;55.586;12.286;2022-11-18T15:49:29;4.03;;;0.80;;
31730;SDS011;18310;55.586;12.286;2022-11-18T15:52:34;2.38;;;0.88;;
31730;SDS011;18310;55.586;12.286;2022-11-18T15:55:38;2.50;;;1.00;;
31730;SDS011;18310;55.586;12.286;2022-11-18T15:58:42;2.70;;;0.90;;
31730;SDS011;18310;55.586;12.286;2022-11-18T16:01:47;2.70;;;0.90;;
31730;SDS011;18310;55.586;12.286;2022-11-18T16:04:56;3.83;;;2.05;;
31730;SDS011;18310;55.586;12.286;2022-11-18T16:08:02;1.98;;;0.90;;
31730;SDS011;18310;55.586;12.286;2022-11-18T16:11:08;2.10;;;1.00;;
31730;SDS011;18310;55.586;12.286;2022-11-18T16:14:28;2.90;;;0.93;;
31730;SDS011;18310;55.586;12.286;2022-11-18T16:17:32;4.65;;;1.40;;
31730;SDS011;18310;55.586;12.286;2022-11-18T16:20:37;2.07;;;0.87;;
31730;SDS011;18310;55.586;12.286;2022-11-18T16:23:41;2.17;;;1.00;;
31730;SDS011;18310;55.586;12.286;2022-11-18T16:26:45;2.30;;;0.90;;
31730;SDS011;18310;55.586;12.286;2022-11-18T16:29:49;2.92;;;0.90;;
31730;SDS011;18310;55.586;12.286;2022-11-18T16:32:53;2.83;;;0.85;;
31730;SDS011;18310;55.586;12.286;2022-11-18T16:35:58;3.95;;;1.50;;
31730;SDS011;18310;55.586;12.286;2022-11-18T16:39:02;6.10;;;1.30;;
31730;SDS011;18310;55.586;12.286;2022-11-18T16:42:09;3.60;;;0.95;;
31730;SDS011;18310;55.586;12.286;2022-11-18T16:45:14;2.28;;;0.95;;
31730;SDS011;18310;55.586;12.286;2022-11-18T16:48:18;2.88;;;0.80;;
31730;SDS011;18310;55.586;12.286;2022-11-18T16:51:23;1.77;;;0.68;;
31730;SDS011;18310;55.586;12.286;2022-11-18T16:54:30;2.20;;;1.02;;
31730;SDS011;18310;55.586;12.286;2022-11-18T16:57:41;5.95;;;0.90;;
31730;SDS011;18310;55.586;12.286;2022-11-18T17:00:44;2.73;;;0.93;;
31730;SDS011;18310;55.586;12.286;2022-11-18T17:04:08;3.80;;;0.90;;
31730;SDS011;18310;55.586;12.286;2022-11-18T17:07:14;3.05;;;1.20;;
31730;SDS011;18310;55.586;12.286;2022-11-18T17:10:18;1.65;;;0.60;;
31730;SDS011;18310;55.586;12.286;2022-11-18T17:13:22;4.97;;;1.58;;
31730;SDS011;18310;55.586;12.286;2022-11-18T17:19:29;3.83;;;1.30;;
31730;SDS011;18310;55.586;12.286;2022-11-18T17:22:34;3.38;;;1.30;;
31730;SDS011;18310;55.586;12.286;2022-11-18T17:25:38;4.50;;;1.40;;
31730;SDS011;18310;55.586;12.286;2022-11-18T17:28:43;3.80;;;1.10;;
31730;SDS011;18310;55.586;12.286;2022-11-18T17:34:51;3.53;;;0.90;;
31730;SDS011;18310;55.586;12.286;2022-11-18T17:37:56;2.47;;;1.00;;
31730;SDS011;18310;55.586;12.286;2022-11-18T17:41:00;2.92;;;1.25;;
31730;SDS011;18310;55.586;12.286;2022-11-18T17:47:09;2.63;;;1.10;;
31730;SDS011;18310;55.586;12.286;2022-11-18T17:50:12;3.08;;;1.13;;
31730;SDS011;18310;55.586;12.286;2022-11-18T17:53:17;3.40;;;0.88;;
31730;SDS011;18310;55.586;12.286;2022-11-18T17:56:23;2.45;;;0.90;;
31730;SDS011;18310;55.586;12.286;2022-11-18T17:59:26;3.08;;;1.17;;
31730;SDS011;18310;55.586;12.286;2022-11-18T18:02:30;2.33;;;1.20;;
31730;SDS011;18310;55.586;12.286;2022-11-18T18:05:35;3.65;;;1.05;;
31730;SDS011;18310;55.586;12.286;2022-11-18T18:08:40;3.78;;;1.13;;
31730;SDS011;18310;55.586;12.286;2022-11-18T18:11:44;1.98;;;0.82;;
31730;SDS011;18310;55.586;12.286;2022-11-18T18:17:51;2.15;;;0.90;;
31730;SDS011;18310;55.586;12.286;2022-11-18T18:20:55;4.45;;;1.10;;
31730;SDS011;18310;55.586;12.286;2022-11-18T18:24:09;2.88;;;1.08;;
31730;SDS011;18310;55.586;12.286;2022-11-18T18:27:15;2.72;;;1.05;;
31730;SDS011;18310;55.586;12.286;2022-11-18T18:30:18;3.45;;;1.42;;
31730;SDS011;18310;55.586;12.286;2022-11-18T18:33:22;2.92;;;1.20;;
31730;SDS011;18310;55.586;12.286;2022-11-18T18:39:31;3.63;;;1.20;;
31730;SDS011;18310;55.586;12.286;2022-11-18T18:42:35;4.22;;;1.20;;
31730;SDS011;18310;55.586;12.286;2022-11-18T18:45:39;3.25;;;1.25;;
31730;SDS011;18310;55.586;12.286;2022-11-18T18:49:02;4.47;;;1.27;;
31730;SDS011;18310;55.586;12.286;2022-11-18T18:52:09;1.67;;;0.75;;
31730;SDS011;18310;55.586;12.286;2022-11-18T18:55:13;2.20;;;0.82;;
31730;SDS011;18310;55.586;12.286;2022-11-18T18:58:17;2.45;;;0.88;;
31730;SDS011;18310;55.586;12.286;2022-11-18T19:01:21;2.72;;;0.95;;
31730;SDS011;18310;55.586;12.286;2022-11-18T19:04:25;3.20;;;0.90;;
31730;SDS011;18310;55.586;12.286;2022-11-18T19:07:29;2.80;;;1.10;;
31730;SDS011;18310;55.586;12.286;2022-11-18T19:10:36;2.08;;;0.70;;
31730;SDS011;18310;55.586;12.286;2022-11-18T19:13:40;3.72;;;1.10;;
31730;SDS011;18310;55.586;12.286;2022-11-18T19:16:43;2.88;;;1.10;;
31730;SDS011;18310;55.586;12.286;2022-11-18T19:19:49;5.05;;;1.13;;
31730;SDS011;18310;55.586;12.286;2022-11-18T19:23:12;2.75;;;1.02;;
31730;SDS011;18310;55.586;12.286;2022-11-18T19:26:19;1.90;;;0.80;;
31730;SDS011;18310;55.586;12.286;2022-11-18T19:29:23;2.38;;;1.00;;
31730;SDS011;18310;55.586;12.286;2022-11-18T19:32:27;2.80;;;0.90;;
31730;SDS011;18310;55.586;12.286;2022-11-18T19:35:30;5.65;;;1.02;;
31730;SDS011;18310;55.586;12.286;2022-11-18T19:38:34;1.98;;;0.82;;
31730;SDS011;18310;55.586;12.286;2022-11-18T19:41:39;4.18;;;0.90;;
31730;SDS011;18310;55.586;12.286;2022-11-18T19:44:43;3.63;;;0.90;;
31730;SDS011;18310;55.586;12.286;2022-11-18T19:47:46;5.40;;;1.10;;
31730;SDS011;18310;55.586;12.286;2022-11-18T19:53:54;3.00;;;0.80;;
31730;SDS011;18310;55.586;12.286;2022-11-18T19:57:03;3.08;;;0.90;;